createdAt,value
2019-01-25T00:00:19.088Z,17.67
2019-01-25T00:02:49.818Z,22.93
2019-01-25T00:05:20.559Z,16.03
2019-01-25T00:07:51.154Z,18.10
2019-01-25T00:10:21.767Z,18.63
2019-01-25T00:12:52.434Z,18.63
2019-01-25T00:15:23.090Z,22.67
2019-01-25T00:17:53.717Z,21.70
2019-01-25T00:20:24.342Z,18.67
2019-01-25T00:22:55.746Z,18.80
2019-01-25T00:25:26.597Z,22.27
2019-01-25T00:27:57.499Z,18.93
2019-01-25T00:30:28.176Z,18.87
2019-01-25T00:32:58.839Z,20.40
2019-01-25T00:35:29.495Z,16.80
2019-01-25T00:38:00.093Z,17.43
2019-01-25T00:40:30.741Z,18.30
2019-01-25T00:43:01.306Z,20.47
2019-01-25T00:45:31.974Z,16.63
2019-01-25T00:48:02.589Z,18.40
2019-01-25T00:50:33.268Z,17.03
2019-01-25T00:53:03.891Z,16.93
2019-01-25T00:55:34.500Z,18.07
2019-01-25T00:58:05.329Z,20.60
2019-01-25T01:00:36.036Z,20.23
2019-01-25T01:03:07.554Z,21.60
2019-01-25T01:05:40.061Z,19.53
2019-01-25T01:08:10.770Z,18.47
2019-01-25T01:10:41.389Z,22.07
2019-01-25T01:13:12.027Z,19.77
2019-01-25T01:15:42.652Z,16.93
2019-01-25T01:18:13.285Z,19.37
2019-01-25T01:20:43.904Z,17.77
2019-01-25T01:23:15.305Z,23.10
2019-01-25T01:25:45.977Z,18.77
2019-01-25T01:28:16.642Z,16.70
2019-01-25T01:30:47.227Z,17.43
2019-01-25T01:33:17.759Z,16.63
2019-01-25T01:35:48.423Z,17.27
2019-01-25T01:38:19.053Z,16.70
2019-01-25T01:40:49.819Z,15.93
2019-01-25T01:43:20.426Z,20.03
2019-01-25T01:45:51.088Z,18.63
2019-01-25T01:48:21.649Z,16.40
2019-01-25T01:50:52.332Z,15.37
2019-01-25T01:53:23.001Z,17.60
2019-01-25T01:55:53.701Z,16.57
2019-01-25T01:58:24.303Z,18.87
2019-01-25T02:00:54.917Z,20.77
2019-01-25T02:03:25.865Z,19.23
2019-01-25T02:05:56.578Z,19.83
2019-01-25T02:08:27.252Z,20.60
2019-01-25T02:10:58.005Z,18.87
2019-01-25T02:13:28.608Z,18.20
2019-01-25T02:16:00.182Z,19.77
2019-01-25T02:18:31.230Z,21.63
2019-01-25T02:21:03.021Z,20.03
2019-01-25T02:23:34.431Z,19.70
2019-01-25T02:26:05.111Z,20.60
2019-01-25T02:28:35.873Z,20.67
2019-01-25T02:31:06.429Z,21.33
2019-01-25T02:33:36.983Z,20.17
2019-01-25T02:36:07.606Z,17.33
2019-01-25T02:38:38.243Z,16.83
2019-01-25T02:41:17.036Z,17.50
2019-01-25T02:43:47.677Z,21.23
2019-01-25T02:46:18.379Z,16.67
2019-01-25T02:48:48.841Z,19.03
2019-01-25T02:51:19.482Z,17.90
2019-01-25T02:53:50.110Z,19.70
2019-01-25T02:56:20.750Z,18.20
2019-01-25T02:58:51.376Z,16.97
2019-01-25T03:01:22.025Z,16.70
2019-01-25T03:03:52.620Z,18.10
2019-01-25T03:06:25.098Z,16.43
2019-01-25T03:08:55.715Z,16.33
2019-01-25T03:11:26.345Z,16.97
2019-01-25T03:13:56.854Z,16.93
2019-01-25T03:16:27.493Z,17.80
2019-01-25T03:18:59.824Z,21.37
2019-01-25T03:21:30.448Z,21.63
2019-01-25T03:24:01.894Z,21.40
2019-01-25T03:26:32.612Z,18.53
2019-01-25T03:29:03.323Z,18.60
2019-01-25T03:31:34.042Z,16.40
2019-01-25T03:34:04.842Z,15.10
2019-01-25T03:36:35.533Z,16.13
2019-01-25T03:39:08.834Z,16.47
2019-01-25T03:41:39.521Z,13.53
2019-01-25T03:44:10.260Z,13.30
2019-01-25T03:46:41.435Z,13.67
2019-01-25T03:49:12.390Z,10.50
2019-01-25T03:51:43.098Z,14.03
2019-01-25T03:54:13.815Z,12.98
2019-01-25T03:56:44.479Z,15.77
2019-01-25T03:59:15.165Z,14.20
2019-01-25T04:01:47.471Z,12.87
2019-01-25T04:04:18.056Z,14.10
2019-01-25T04:06:48.707Z,16.33
2019-01-25T04:09:19.271Z,13.07
2019-01-25T04:11:53.344Z,13.10
2019-01-25T04:14:23.049Z,14.37
2019-01-25T04:16:53.724Z,15.70
2019-01-25T04:19:24.396Z,14.83
2019-01-25T04:21:55.136Z,13.20
2019-01-25T04:24:26.536Z,14.03
2019-01-25T04:26:57.271Z,14.80
2019-01-25T04:29:28.178Z,16.07
2019-01-25T04:31:58.811Z,12.67
2019-01-25T04:34:29.412Z,14.43
2019-01-25T04:37:00.208Z,14.87
2019-01-25T04:39:30.902Z,14.70
2019-01-25T04:42:01.552Z,14.43
2019-01-25T04:44:33.832Z,15.77
2019-01-25T04:47:04.450Z,15.13
2019-01-25T04:49:36.919Z,15.17
2019-01-25T04:52:15.126Z,15.10
2019-01-25T04:54:45.732Z,16.90
2019-01-25T04:57:16.371Z,14.50
2019-01-25T04:59:47.011Z,13.77
2019-01-25T05:02:17.663Z,14.97
2019-01-25T05:04:50.867Z,15.67
2019-01-25T05:07:21.526Z,15.47
2019-01-25T05:09:52.005Z,15.33
2019-01-25T05:12:22.564Z,14.80
2019-01-25T05:14:53.251Z,15.65
2019-01-25T05:17:23.949Z,15.70
2019-01-25T05:19:54.618Z,16.87
2019-01-25T05:22:25.419Z,16.50
2019-01-25T05:24:56.827Z,16.27
2019-01-25T05:27:30.456Z,15.57
2019-01-25T05:30:01.134Z,17.57
2019-01-25T05:32:31.859Z,18.00
2019-01-25T05:35:03.972Z,15.93
2019-01-25T05:37:37.930Z,15.57
2019-01-25T05:40:12.228Z,15.50
2019-01-25T05:42:42.867Z,16.63
2019-01-25T05:45:16.713Z,14.93
2019-01-25T05:47:47.314Z,18.03
2019-01-25T05:50:18.725Z,16.77
2019-01-25T05:52:49.262Z,16.47
2019-01-25T05:55:23.725Z,16.47
2019-01-25T05:58:03.573Z,18.10
2019-01-25T06:00:38.274Z,16.87
2019-01-25T06:03:12.558Z,16.63
2019-01-25T06:05:44.053Z,16.50
2019-01-25T06:08:31.924Z,18.97
2019-01-25T06:11:07.833Z,16.40
2019-01-25T06:13:38.988Z,19.57
2019-01-25T06:16:10.053Z,16.73
2019-01-25T06:18:41.061Z,19.93
2019-01-25T06:21:11.754Z,18.57
2019-01-25T06:23:42.471Z,18.87
2019-01-25T06:26:14.358Z,15.77
2019-01-25T06:28:49.443Z,16.93
2019-01-25T06:31:27.819Z,16.67
2019-01-25T06:33:58.417Z,17.30
2019-01-25T06:36:29.037Z,20.97
2019-01-25T06:39:01.763Z,18.20
2019-01-25T06:41:32.430Z,19.17
2019-01-25T06:44:02.970Z,17.93
2019-01-25T06:46:33.795Z,17.47
2019-01-25T06:49:04.945Z,19.07
2019-01-25T06:51:38.627Z,18.20
2019-01-25T06:54:09.268Z,21.63
2019-01-25T06:56:39.855Z,18.47
2019-01-25T06:59:12.210Z,16.27
2019-01-25T07:01:44.499Z,16.83
2019-01-25T07:04:15.110Z,16.43
2019-01-25T07:06:47.245Z,17.53
2019-01-25T07:09:18.050Z,20.33
2019-01-25T07:11:51.703Z,19.67
2019-01-25T07:14:20.998Z,20.73
2019-01-25T07:16:51.654Z,20.13
2019-01-25T07:19:32.841Z,22.03
2019-01-25T07:22:07.822Z,23.50
2019-01-25T07:24:38.535Z,23.53
2019-01-25T07:27:10.254Z,21.60
2019-01-25T07:29:40.965Z,21.93
2019-01-25T07:32:11.679Z,21.93
2019-01-25T07:34:42.362Z,20.80
2019-01-25T07:37:15.214Z,19.13
2019-01-25T07:39:46.658Z,19.40
2019-01-25T07:42:17.610Z,18.63
2019-01-25T07:44:49.247Z,20.17
2019-01-25T07:47:19.893Z,18.40
2019-01-25T07:49:50.603Z,15.93
2019-01-25T07:52:25.802Z,14.40
2019-01-25T07:54:56.423Z,14.83
2019-01-25T07:57:27.516Z,17.33
2019-01-25T07:59:58.907Z,15.40
2019-01-25T08:02:29.321Z,15.27
2019-01-25T08:04:59.954Z,19.57
2019-01-25T08:07:30.602Z,17.13
2019-01-25T08:10:01.306Z,14.90
2019-01-25T08:12:31.941Z,16.77
2019-01-25T08:15:04.335Z,18.43
2019-01-25T08:17:34.976Z,19.93
2019-01-25T08:20:10.067Z,19.10
2019-01-25T08:22:41.307Z,19.67
2019-01-25T08:25:16.215Z,18.97
2019-01-25T08:27:48.367Z,19.13
2019-01-25T08:30:22.485Z,18.20
2019-01-25T08:32:53.404Z,18.10
2019-01-25T08:35:24.151Z,17.90
2019-01-25T08:37:54.710Z,17.40
2019-01-25T08:40:25.448Z,18.23
2019-01-25T08:42:56.949Z,18.23
2019-01-25T08:45:27.894Z,17.33
2019-01-25T08:47:58.608Z,19.27
2019-01-25T08:50:29.333Z,17.30
2019-01-25T08:52:59.903Z,17.87
2019-01-25T08:55:30.578Z,17.17
2019-01-25T08:58:01.337Z,18.77
2019-01-25T09:00:32.268Z,16.90
2019-01-25T09:03:02.911Z,17.03
2019-01-25T09:05:33.608Z,17.03
2019-01-25T09:08:05.419Z,17.97
2019-01-25T09:10:39.605Z,17.10
2019-01-25T09:13:10.219Z,14.27
2019-01-25T09:15:41.075Z,14.97
2019-01-25T09:18:11.975Z,17.07
2019-01-25T09:20:42.596Z,14.70
2019-01-25T09:23:14.184Z,17.90
2019-01-25T09:25:44.815Z,18.70
2019-01-25T09:28:16.062Z,18.13
2019-01-25T09:30:48.159Z,17.23
2019-01-25T09:33:20.229Z,17.53
2019-01-25T09:35:54.202Z,17.80
2019-01-25T09:38:26.000Z,16.87
2019-01-25T09:40:57.725Z,17.07
2019-01-25T09:43:29.478Z,15.90
2019-01-25T09:46:00.498Z,17.53
2019-01-25T09:48:31.705Z,18.37
2019-01-25T09:51:06.113Z,17.40
2019-01-25T09:53:38.312Z,15.47
2019-01-25T09:56:10.166Z,16.10
2019-01-25T09:58:44.696Z,17.50
2019-01-25T10:01:21.191Z,17.80
2019-01-25T10:03:52.434Z,17.00
2019-01-25T10:06:25.262Z,17.30
2019-01-25T10:08:57.026Z,16.73
2019-01-25T10:11:29.145Z,18.63
2019-01-25T10:14:00.678Z,17.83
2019-01-25T10:16:32.931Z,18.27
2019-01-25T10:19:03.686Z,16.17
2019-01-25T10:21:34.723Z,16.27
2019-01-25T10:24:05.620Z,18.13
2019-01-25T10:26:36.159Z,16.83
2019-01-25T10:29:07.647Z,16.30
2019-01-25T10:31:38.193Z,17.83
2019-01-25T10:34:14.519Z,17.77
2019-01-25T10:36:45.120Z,17.50
2019-01-25T10:39:15.840Z,18.87
2019-01-25T10:41:46.828Z,18.23
2019-01-25T10:44:17.864Z,17.53
2019-01-25T10:46:48.579Z,17.23
2019-01-25T10:49:19.411Z,18.13
2019-01-25T10:51:50.016Z,17.40
2019-01-25T10:54:22.351Z,17.83
2019-01-25T10:56:53.426Z,17.93
2019-01-25T10:59:25.129Z,19.57
2019-01-25T11:01:56.802Z,17.87
2019-01-25T11:04:27.736Z,17.83
2019-01-25T11:06:58.605Z,18.30
2019-01-25T11:09:29.190Z,17.30
2019-01-25T11:11:59.959Z,18.03
2019-01-25T11:14:30.669Z,18.10
2019-01-25T11:17:01.292Z,17.93
2019-01-25T11:19:32.000Z,17.33
2019-01-25T11:22:02.610Z,18.80
2019-01-25T11:24:33.212Z,17.67
2019-01-25T11:27:04.069Z,17.67
2019-01-25T11:29:35.478Z,18.17
2019-01-25T11:32:06.157Z,16.60
2019-01-25T11:34:36.784Z,17.57
2019-01-25T11:37:07.793Z,17.90
2019-01-25T11:39:38.363Z,18.00
2019-01-25T11:42:09.051Z,17.03
2019-01-25T11:44:43.885Z,19.60
2019-01-25T11:47:16.075Z,17.97
2019-01-25T11:49:46.712Z,18.57
2019-01-25T11:52:17.350Z,16.47
2019-01-25T11:54:50.997Z,17.67
2019-01-25T11:57:21.648Z,18.33
2019-01-25T11:59:53.182Z,17.40
2019-01-25T12:02:23.810Z,17.70
2019-01-25T12:04:54.394Z,16.60
2019-01-25T12:07:25.220Z,18.23
2019-01-25T12:09:57.274Z,17.63
2019-01-25T12:12:29.059Z,17.80
2019-01-25T12:14:59.609Z,18.80
2019-01-25T12:17:30.972Z,18.90
2019-01-25T12:20:01.870Z,18.57
2019-01-25T12:22:32.519Z,17.40
2019-01-25T12:28:05.975Z,17.90
2019-01-25T12:30:43.143Z,18.63
2019-01-25T12:33:13.601Z,18.00
2019-01-25T12:35:50.054Z,19.20
2019-01-25T12:38:21.324Z,19.20
2019-01-25T12:40:56.122Z,19.13
2019-01-25T12:43:30.226Z,17.67
2019-01-25T12:46:01.192Z,17.60
2019-01-25T12:48:32.304Z,18.53
2019-01-25T12:51:08.114Z,17.73
2019-01-25T12:53:38.562Z,17.20
2019-01-25T12:56:12.247Z,16.67
2019-01-25T12:58:42.963Z,17.43
2019-01-25T13:01:13.922Z,16.77
2019-01-25T13:03:46.422Z,17.57
2019-01-25T13:06:16.899Z,17.73
2019-01-25T13:08:47.503Z,17.83
2019-01-25T13:11:18.018Z,16.83
2019-01-25T13:13:49.497Z,18.17
2019-01-25T13:16:23.097Z,17.03
2019-01-25T13:18:53.632Z,17.67
2019-01-25T13:21:25.720Z,18.30
2019-01-25T13:23:57.542Z,17.43
2019-01-25T13:26:28.403Z,17.57
2019-01-25T13:28:59.912Z,17.17
2019-01-25T13:31:32.704Z,19.13
2019-01-25T13:34:03.751Z,18.67
2019-01-25T13:36:34.423Z,19.10
2019-01-25T13:39:08.207Z,17.47
2019-01-25T13:41:39.228Z,19.40
2019-01-25T13:44:09.925Z,17.60
2019-01-25T13:46:40.500Z,18.83
2019-01-25T13:49:11.502Z,17.93
2019-01-25T13:51:42.116Z,18.30
2019-01-25T13:54:15.744Z,18.67
2019-01-25T13:56:46.301Z,18.23
2019-01-25T13:59:16.872Z,18.83
2019-01-25T14:01:47.524Z,18.03
2019-01-25T14:04:18.178Z,18.97
2019-01-25T14:06:48.783Z,19.70
2019-01-25T14:09:19.401Z,19.27
2019-01-25T14:11:50.083Z,18.80
2019-01-25T14:14:21.650Z,17.63
2019-01-25T14:16:53.293Z,18.00
2019-01-25T14:19:23.902Z,19.73
2019-01-25T14:21:54.457Z,19.20
2019-01-25T14:24:27.913Z,19.20
2019-01-25T14:26:58.496Z,18.27
2019-01-25T14:29:29.359Z,17.23
2019-01-25T14:32:00.884Z,16.70
2019-01-25T14:34:33.065Z,18.27
2019-01-25T14:37:03.712Z,18.70
2019-01-25T14:39:34.403Z,18.90
2019-01-25T14:42:05.040Z,17.73
2019-01-25T14:44:35.635Z,17.03
2019-01-25T14:47:06.601Z,17.70
2019-01-25T14:49:38.073Z,18.20
2019-01-25T14:52:08.781Z,16.83
2019-01-25T14:54:39.460Z,17.73
2019-01-25T14:57:13.255Z,17.60
2019-01-25T14:59:44.620Z,18.07
2019-01-25T15:02:15.318Z,16.57
2019-01-25T15:04:50.311Z,16.83
2019-01-25T15:07:21.272Z,16.87
2019-01-25T15:09:51.838Z,16.80
2019-01-25T15:12:22.848Z,16.37
2019-01-25T15:14:53.522Z,15.50
2019-01-25T15:17:24.126Z,14.80
2019-01-25T15:19:54.952Z,14.97
2019-01-25T15:22:25.475Z,13.50
2019-01-25T15:24:56.323Z,14.67
2019-01-25T15:27:28.528Z,13.73
2019-01-25T15:30:00.312Z,16.27
2019-01-25T15:32:32.986Z,16.73
2019-01-25T15:35:04.257Z,16.07
2019-01-25T15:37:34.915Z,14.50
2019-01-25T15:40:12.404Z,14.37
2019-01-25T15:42:43.301Z,13.77
2019-01-25T15:45:20.567Z,15.47
2019-01-25T15:47:51.255Z,13.97
2019-01-25T15:50:27.835Z,16.80
2019-01-25T15:52:59.872Z,15.77
2019-01-25T15:55:30.861Z,15.30
2019-01-25T15:58:01.420Z,15.53
2019-01-25T16:00:32.054Z,16.70
2019-01-25T16:03:02.666Z,16.83
2019-01-25T16:05:33.359Z,16.27
2019-01-25T16:08:04.232Z,15.53
2019-01-25T16:10:35.266Z,13.07
2019-01-25T16:13:05.937Z,15.73
2019-01-25T16:15:37.941Z,12.20
2019-01-25T16:18:09.648Z,12.37
2019-01-25T16:20:40.405Z,11.93
2019-01-25T16:23:11.708Z,12.77
2019-01-25T16:25:42.914Z,12.77
2019-01-25T16:28:13.467Z,11.17
2019-01-25T16:30:44.789Z,13.70
2019-01-25T16:33:16.583Z,13.00
2019-01-25T16:35:47.862Z,12.30
2019-01-25T16:38:18.541Z,13.00
2019-01-25T16:40:49.569Z,13.10
2019-01-25T16:43:20.197Z,12.37
2019-01-25T16:45:50.941Z,11.50
2019-01-25T16:48:21.589Z,13.00
2019-01-25T16:50:53.293Z,11.67
2019-01-25T16:53:23.901Z,13.47
2019-01-25T16:55:55.923Z,12.67
2019-01-25T16:58:30.001Z,13.40
2019-01-25T17:01:00.998Z,13.53
2019-01-25T17:03:31.587Z,14.80
2019-01-25T17:06:02.624Z,13.87
2019-01-25T17:08:33.323Z,13.63
2019-01-25T17:11:04.196Z,15.43
2019-01-25T17:13:34.847Z,15.10
2019-01-25T17:16:05.917Z,13.83
2019-01-25T17:18:36.526Z,13.93
2019-01-25T17:21:07.324Z,13.77
2019-01-25T17:23:41.247Z,12.87
2019-01-25T17:26:14.908Z,13.90
2019-01-25T17:28:45.641Z,11.77
2019-01-25T17:31:16.340Z,12.27
2019-01-25T17:33:49.553Z,12.27
2019-01-25T17:36:20.199Z,11.03
2019-01-25T17:38:51.159Z,12.70
2019-01-25T17:41:23.508Z,11.40
2019-01-25T17:43:54.150Z,13.10
2019-01-25T17:46:25.192Z,11.47
2019-01-25T17:48:56.172Z,12.37
2019-01-25T17:51:28.086Z,12.40
2019-01-25T17:53:58.682Z,11.73
2019-01-25T17:56:29.381Z,12.23
2019-01-25T17:59:00.088Z,12.60
2019-01-25T18:01:30.723Z,11.73
2019-01-25T18:04:01.241Z,11.90
2019-01-25T18:06:32.046Z,11.00
2019-01-25T18:09:02.664Z,12.23
2019-01-25T18:11:33.373Z,12.00
2019-01-25T18:14:06.108Z,11.50
2019-01-25T18:16:36.813Z,13.93
2019-01-25T18:19:08.831Z,12.17
2019-01-25T18:21:39.396Z,11.20
2019-01-25T18:24:10.456Z,11.80
2019-01-25T18:26:41.314Z,12.90
2019-01-25T18:29:11.779Z,11.47
2019-01-25T18:31:42.822Z,11.23
2019-01-25T18:34:14.830Z,9.13
2019-01-25T18:36:45.549Z,11.30
2019-01-25T18:39:19.928Z,10.90
2019-01-25T18:41:50.538Z,10.67
2019-01-25T18:44:21.231Z,12.93
2019-01-25T18:46:51.846Z,11.90
2019-01-25T18:49:22.775Z,15.03
2019-01-25T18:51:53.696Z,13.70
2019-01-25T18:54:24.671Z,13.60
2019-01-25T18:56:55.610Z,12.00
2019-01-25T18:59:26.233Z,12.40
2019-01-25T19:01:56.880Z,12.03
2019-01-25T19:04:27.576Z,12.77
2019-01-25T19:06:58.911Z,12.70
2019-01-25T19:09:30.348Z,15.00
2019-01-25T19:12:00.976Z,13.27
2019-01-25T19:14:31.486Z,17.03
2019-01-25T19:17:02.959Z,24.73
2019-01-25T19:19:33.627Z,23.87
2019-01-25T19:22:04.269Z,25.00
2019-01-25T19:24:34.829Z,25.13
2019-01-25T19:27:05.952Z,23.23
2019-01-25T19:29:36.650Z,17.37
2019-01-25T19:32:07.801Z,13.87
2019-01-25T19:34:39.123Z,12.87
2019-01-25T19:37:09.768Z,13.27
2019-01-25T19:39:40.373Z,12.63
2019-01-25T19:42:11.034Z,13.75
2019-01-25T19:44:41.629Z,16.60
2019-01-25T19:47:12.292Z,13.30
2019-01-25T19:49:42.812Z,14.70
2019-01-25T19:52:13.481Z,13.83
2019-01-25T19:54:44.135Z,11.83
2019-01-25T19:57:14.821Z,13.00
2019-01-25T19:59:48.175Z,12.68
2019-01-25T20:02:18.834Z,12.45
2019-01-25T20:04:49.454Z,12.47
2019-01-25T20:07:20.147Z,12.28
2019-01-25T20:09:50.742Z,12.77
2019-01-25T20:12:21.508Z,12.20
2019-01-25T20:14:52.056Z,12.33
2019-01-25T20:17:22.696Z,12.23
2019-01-25T20:19:55.468Z,12.43
2019-01-25T20:22:26.163Z,12.28
2019-01-25T20:24:56.836Z,12.90
2019-01-25T20:27:27.790Z,13.23
2019-01-25T20:29:58.371Z,14.07
2019-01-25T20:32:29.509Z,13.70
2019-01-25T20:35:02.650Z,13.70
2019-01-25T20:37:33.418Z,14.13
2019-01-25T20:40:05.921Z,14.07
2019-01-25T20:42:37.995Z,15.13
2019-01-25T20:45:13.612Z,12.97
2019-01-25T20:47:44.261Z,13.50
2019-01-25T20:50:19.091Z,17.57
2019-01-25T20:52:49.760Z,13.67
2019-01-25T20:55:20.483Z,13.23
2019-01-25T20:57:51.151Z,14.80
2019-01-25T21:00:37.005Z,19.62
2019-01-25T21:03:12.643Z,27.70
2019-01-25T21:05:42.582Z,18.70
2019-01-25T21:08:13.304Z,22.33
2019-01-25T21:10:44.088Z,22.33
2019-01-25T21:13:16.155Z,15.53
2019-01-25T21:15:46.864Z,16.20
2019-01-25T21:18:17.478Z,14.33
2019-01-25T21:20:48.449Z,14.25
2019-01-25T21:23:19.064Z,13.93
2019-01-25T21:25:49.865Z,17.35
2019-01-25T21:28:20.639Z,18.27
2019-01-25T21:30:51.244Z,17.20
2019-01-25T21:33:21.733Z,17.55
2019-01-25T21:35:53.158Z,15.58
2019-01-25T21:38:24.248Z,16.62
2019-01-25T21:40:54.865Z,16.23
2019-01-25T21:43:25.490Z,15.35
2019-01-25T21:45:56.158Z,16.32
2019-01-25T21:48:26.797Z,16.48
2019-01-25T21:50:57.500Z,16.67
2019-01-25T21:53:28.151Z,16.43
2019-01-25T21:56:02.181Z,14.50
2019-01-25T21:58:33.903Z,13.77
2019-01-25T22:01:05.712Z,14.50
2019-01-25T22:03:36.382Z,12.57
2019-01-25T22:06:07.187Z,11.53
2019-01-25T22:08:37.843Z,13.35
2019-01-25T22:11:08.449Z,14.10
2019-01-25T22:13:39.154Z,12.58
2019-01-25T22:16:09.685Z,15.03
2019-01-25T22:18:40.290Z,11.28
2019-01-25T22:21:10.824Z,13.62
2019-01-25T22:23:41.402Z,14.05
2019-01-25T22:26:12.004Z,13.08
2019-01-25T22:28:42.565Z,14.43
2019-01-25T22:31:13.272Z,16.02
2019-01-25T22:33:43.947Z,15.83
2019-01-25T22:36:15.323Z,14.85
2019-01-25T22:38:46.468Z,14.53
2019-01-25T22:41:17.894Z,13.30
2019-01-25T22:43:50.026Z,16.48
2019-01-25T22:46:20.723Z,15.10
2019-01-25T22:48:51.420Z,13.65
2019-01-25T22:51:22.011Z,12.82
2019-01-25T22:53:55.258Z,13.55
2019-01-25T22:56:25.820Z,14.40
2019-01-25T22:58:56.420Z,11.80
2019-01-25T23:01:27.984Z,11.93
2019-01-25T23:04:11.913Z,13.30
2019-01-25T23:06:45.693Z,11.25
2019-01-25T23:09:23.619Z,13.08
2019-01-25T23:11:54.309Z,11.70
2019-01-25T23:14:24.967Z,12.93
2019-01-25T23:16:56.628Z,12.65
2019-01-25T23:19:28.217Z,13.72
2019-01-25T23:21:58.815Z,11.27
2019-01-25T23:24:29.482Z,12.03
2019-01-25T23:27:00.372Z,12.07
2019-01-25T23:29:31.439Z,12.25
2019-01-25T23:32:02.138Z,11.43
2019-01-25T23:34:36.935Z,12.70
2019-01-25T23:37:08.527Z,11.03
2019-01-25T23:39:39.145Z,12.68
2019-01-25T23:42:10.395Z,17.55
2019-01-25T23:44:41.045Z,17.57
2019-01-25T23:47:11.962Z,16.82
2019-01-25T23:49:42.557Z,17.17
2019-01-25T23:52:13.114Z,16.40
2019-01-25T23:54:44.039Z,18.70
2019-01-25T23:57:14.687Z,17.32
2019-01-25T23:59:45.313Z,19.12
